sensor_id;sensor_type;location;lat;lon;timestamp;P1;durP1;ratioP1;P2;durP2;ratioP2
8819;SDS011;4446;50.876;4.736;2023-02-23T00:00:30;78.40;;;43.47;;
8819;SDS011;4446;50.876;4.736;2023-02-23T00:02:58;79.57;;;42.38;;
8819;SDS011;4446;50.876;4.736;2023-02-23T00:05:27;75.35;;;43.25;;
8819;SDS011;4446;50.876;4.736;2023-02-23T00:07:55;79.22;;;43.67;;
8819;SDS011;4446;50.876;4.736;2023-02-23T00:10:22;77.85;;;43.47;;
8819;SDS011;4446;50.876;4.736;2023-02-23T00:12:56;72.68;;;40.70;;
8819;SDS011;4446;50.876;4.736;2023-02-23T00:15:23;76.80;;;42.03;;
8819;SDS011;4446;50.876;4.736;2023-02-23T00:17:51;72.07;;;42.17;;
8819;SDS011;4446;50.876;4.736;2023-02-23T00:20:19;76.72;;;44.13;;
8819;SDS011;4446;50.876;4.736;2023-02-23T00:22:51;78.95;;;43.80;;
8819;SDS011;4446;50.876;4.736;2023-02-23T00:25:19;76.22;;;43.55;;
8819;SDS011;4446;50.876;4.736;2023-02-23T00:27:46;72.28;;;42.45;;
8819;SDS011;4446;50.876;4.736;2023-02-23T00:30:15;73.07;;;41.75;;
8819;SDS011;4446;50.876;4.736;2023-02-23T00:32:43;76.95;;;41.65;;
8819;SDS011;4446;50.876;4.736;2023-02-23T00:35:10;76.05;;;43.20;;
8819;SDS011;4446;50.876;4.736;2023-02-23T00:37:42;71.43;;;41.90;;
8819;SDS011;4446;50.876;4.736;2023-02-23T00:40:10;72.25;;;43.10;;
8819;SDS011;4446;50.876;4.736;2023-02-23T00:42:40;70.50;;;42.28;;
8819;SDS011;4446;50.876;4.736;2023-02-23T00:45:09;75.70;;;42.60;;
8819;SDS011;4446;50.876;4.736;2023-02-23T00:47:39;65.38;;;39.65;;
8819;SDS011;4446;50.876;4.736;2023-02-23T00:50:08;72.10;;;40.65;;
8819;SDS011;4446;50.876;4.736;2023-02-23T00:52:39;71.65;;;42.35;;
8819;SDS011;4446;50.876;4.736;2023-02-23T00:55:08;70.85;;;41.03;;
8819;SDS011;4446;50.876;4.736;2023-02-23T00:57:36;62.83;;;39.17;;
8819;SDS011;4446;50.876;4.736;2023-02-23T01:00:04;69.70;;;40.83;;
8819;SDS011;4446;50.876;4.736;2023-02-23T01:02:42;63.92;;;38.22;;
8819;SDS011;4446;50.876;4.736;2023-02-23T01:05:09;70.45;;;41.88;;
8819;SDS011;4446;50.876;4.736;2023-02-23T01:07:38;62.67;;;39.22;;
8819;SDS011;4446;50.876;4.736;2023-02-23T01:10:06;62.83;;;37.83;;
8819;SDS011;4446;50.876;4.736;2023-02-23T01:12:44;62.65;;;38.45;;
8819;SDS011;4446;50.876;4.736;2023-02-23T01:15:13;66.95;;;40.97;;
8819;SDS011;4446;50.876;4.736;2023-02-23T01:17:40;62.05;;;38.15;;
8819;SDS011;4446;50.876;4.736;2023-02-23T01:20:09;62.03;;;38.80;;
8819;SDS011;4446;50.876;4.736;2023-02-23T01:22:42;64.53;;;40.28;;
8819;SDS011;4446;50.876;4.736;2023-02-23T01:25:09;64.30;;;38.97;;
8819;SDS011;4446;50.876;4.736;2023-02-23T01:27:37;62.78;;;38.33;;
8819;SDS011;4446;50.876;4.736;2023-02-23T01:30:05;58.85;;;39.05;;
8819;SDS011;4446;50.876;4.736;2023-02-23T01:32:33;67.55;;;40.95;;
8819;SDS011;4446;50.876;4.736;2023-02-23T01:35:01;65.15;;;40.78;;
8819;SDS011;4446;50.876;4.736;2023-02-23T01:37:30;63.25;;;40.00;;
8819;SDS011;4446;50.876;4.736;2023-02-23T01:39:59;60.45;;;37.35;;
8819;SDS011;4446;50.876;4.736;2023-02-23T01:42:28;58.45;;;37.47;;
8819;SDS011;4446;50.876;4.736;2023-02-23T01:45:16;61.10;;;37.70;;
8819;SDS011;4446;50.876;4.736;2023-02-23T01:47:47;62.95;;;39.25;;
8819;SDS011;4446;50.876;4.736;2023-02-23T01:50:15;62.33;;;37.80;;
8819;SDS011;4446;50.876;4.736;2023-02-23T01:52:45;58.78;;;36.63;;
8819;SDS011;4446;50.876;4.736;2023-02-23T01:55:15;63.42;;;38.05;;
8819;SDS011;4446;50.876;4.736;2023-02-23T01:57:48;55.47;;;36.15;;
8819;SDS011;4446;50.876;4.736;2023-02-23T02:00:18;60.83;;;38.50;;
8819;SDS011;4446;50.876;4.736;2023-02-23T02:02:49;59.58;;;37.03;;
8819;SDS011;4446;50.876;4.736;2023-02-23T02:05:17;64.70;;;38.03;;
8819;SDS011;4446;50.876;4.736;2023-02-23T02:07:48;62.90;;;35.78;;
8819;SDS011;4446;50.876;4.736;2023-02-23T02:10:23;59.53;;;35.72;;
8819;SDS011;4446;50.876;4.736;2023-02-23T02:13:10;56.45;;;34.22;;
8819;SDS011;4446;50.876;4.736;2023-02-23T02:15:45;56.72;;;34.47;;
8819;SDS011;4446;50.876;4.736;2023-02-23T02:18:38;59.88;;;36.90;;
8819;SDS011;4446;50.876;4.736;2023-02-23T02:21:23;57.30;;;35.42;;
8819;SDS011;4446;50.876;4.736;2023-02-23T02:24:29;54.90;;;34.53;;
8819;SDS011;4446;50.876;4.736;2023-02-23T02:27:23;56.03;;;33.85;;
8819;SDS011;4446;50.876;4.736;2023-02-23T02:33:13;56.35;;;35.88;;
8819;SDS011;4446;50.876;4.736;2023-02-23T02:38:59;49.80;;;32.30;;
8819;SDS011;4446;50.876;4.736;2023-02-23T02:41:35;54.58;;;33.42;;
8819;SDS011;4446;50.876;4.736;2023-02-23T02:44:16;55.83;;;35.58;;
8819;SDS011;4446;50.876;4.736;2023-02-23T02:46:46;54.38;;;34.38;;
8819;SDS011;4446;50.876;4.736;2023-02-23T02:49:19;52.33;;;32.92;;
8819;SDS011;4446;50.876;4.736;2023-02-23T02:51:52;51.92;;;32.40;;
8819;SDS011;4446;50.876;4.736;2023-02-23T02:54:26;49.45;;;32.45;;
8819;SDS011;4446;50.876;4.736;2023-02-23T02:56:58;54.03;;;34.22;;
8819;SDS011;4446;50.876;4.736;2023-02-23T02:59:28;57.35;;;34.92;;
8819;SDS011;4446;50.876;4.736;2023-02-23T03:02:14;53.28;;;33.30;;
8819;SDS011;4446;50.876;4.736;2023-02-23T03:05:00;60.03;;;36.25;;
8819;SDS011;4446;50.876;4.736;2023-02-23T03:07:45;51.72;;;34.45;;
8819;SDS011;4446;50.876;4.736;2023-02-23T03:10:40;52.53;;;33.55;;
8819;SDS011;4446;50.876;4.736;2023-02-23T03:13:31;53.55;;;33.63;;
8819;SDS011;4446;50.876;4.736;2023-02-23T03:16:28;57.83;;;34.53;;
8819;SDS011;4446;50.876;4.736;2023-02-23T03:19:20;53.60;;;32.97;;
8819;SDS011;4446;50.876;4.736;2023-02-23T03:22:11;58.00;;;34.72;;
8819;SDS011;4446;50.876;4.736;2023-02-23T03:25:03;57.42;;;33.97;;
8819;SDS011;4446;50.876;4.736;2023-02-23T03:27:53;61.67;;;34.40;;
8819;SDS011;4446;50.876;4.736;2023-02-23T03:30:46;57.92;;;33.97;;
8819;SDS011;4446;50.876;4.736;2023-02-23T03:33:36;63.78;;;33.67;;
8819;SDS011;4446;50.876;4.736;2023-02-23T03:36:24;60.38;;;34.58;;
8819;SDS011;4446;50.876;4.736;2023-02-23T03:39:14;77.95;;;35.58;;
8819;SDS011;4446;50.876;4.736;2023-02-23T03:42:06;90.10;;;38.92;;
8819;SDS011;4446;50.876;4.736;2023-02-23T03:44:54;96.05;;;39.30;;
8819;SDS011;4446;50.876;4.736;2023-02-23T03:47:41;92.88;;;39.15;;
8819;SDS011;4446;50.876;4.736;2023-02-23T03:50:29;89.65;;;35.90;;
8819;SDS011;4446;50.876;4.736;2023-02-23T03:53:18;111.47;;;39.97;;
8819;SDS011;4446;50.876;4.736;2023-02-23T03:56:07;103.40;;;37.28;;
8819;SDS011;4446;50.876;4.736;2023-02-23T03:58:54;120.35;;;40.88;;
8819;SDS011;4446;50.876;4.736;2023-02-23T04:01:43;120.38;;;38.83;;
8819;SDS011;4446;50.876;4.736;2023-02-23T04:04:28;114.88;;;39.80;;
8819;SDS011;4446;50.876;4.736;2023-02-23T04:07:15;120.43;;;41.00;;
8819;SDS011;4446;50.876;4.736;2023-02-23T04:10:02;117.25;;;39.20;;
8819;SDS011;4446;50.876;4.736;2023-02-23T04:12:51;128.25;;;41.03;;
8819;SDS011;4446;50.876;4.736;2023-02-23T04:15:50;127.85;;;43.42;;
8819;SDS011;4446;50.876;4.736;2023-02-23T04:18:21;129.32;;;43.50;;
8819;SDS011;4446;50.876;4.736;2023-02-23T04:20:50;128.93;;;43.22;;
8819;SDS011;4446;50.876;4.736;2023-02-23T04:23:17;115.35;;;41.70;;
8819;SDS011;4446;50.876;4.736;2023-02-23T04:25:46;123.70;;;42.03;;
8819;SDS011;4446;50.876;4.736;2023-02-23T04:28:13;116.70;;;41.75;;
8819;SDS011;4446;50.876;4.736;2023-02-23T04:30:41;124.97;;;43.55;;
8819;SDS011;4446;50.876;4.736;2023-02-23T04:33:08;114.35;;;42.35;;
8819;SDS011;4446;50.876;4.736;2023-02-23T04:35:36;121.10;;;43.05;;
8819;SDS011;4446;50.876;4.736;2023-02-23T04:38:03;107.35;;;42.42;;
8819;SDS011;4446;50.876;4.736;2023-02-23T04:40:30;93.63;;;38.40;;
8819;SDS011;4446;50.876;4.736;2023-02-23T04:42:57;92.85;;;36.13;;
8819;SDS011;4446;50.876;4.736;2023-02-23T04:45:24;88.03;;;33.67;;
8819;SDS011;4446;50.876;4.736;2023-02-23T04:47:52;79.97;;;32.58;;
8819;SDS011;4446;50.876;4.736;2023-02-23T04:50:19;80.70;;;32.33;;
8819;SDS011;4446;50.876;4.736;2023-02-23T04:52:48;76.22;;;29.88;;
8819;SDS011;4446;50.876;4.736;2023-02-23T04:55:17;72.50;;;31.17;;
8819;SDS011;4446;50.876;4.736;2023-02-23T04:57:46;71.60;;;28.92;;
8819;SDS011;4446;50.876;4.736;2023-02-23T05:00:14;67.50;;;29.33;;
8819;SDS011;4446;50.876;4.736;2023-02-23T05:02:42;76.68;;;30.70;;
8819;SDS011;4446;50.876;4.736;2023-02-23T05:05:10;62.88;;;28.77;;
8819;SDS011;4446;50.876;4.736;2023-02-23T05:07:37;77.75;;;31.00;;
8819;SDS011;4446;50.876;4.736;2023-02-23T05:10:06;66.68;;;30.33;;
8819;SDS011;4446;50.876;4.736;2023-02-23T05:12:33;78.38;;;31.30;;
8819;SDS011;4446;50.876;4.736;2023-02-23T05:15:00;66.28;;;27.95;;
8819;SDS011;4446;50.876;4.736;2023-02-23T05:17:27;71.50;;;29.38;;
8819;SDS011;4446;50.876;4.736;2023-02-23T05:19:54;61.65;;;29.33;;
8819;SDS011;4446;50.876;4.736;2023-02-23T05:22:21;66.65;;;28.75;;
8819;SDS011;4446;50.876;4.736;2023-02-23T05:24:48;70.53;;;28.95;;
8819;SDS011;4446;50.876;4.736;2023-02-23T05:27:16;64.78;;;29.58;;
8819;SDS011;4446;50.876;4.736;2023-02-23T05:29:43;63.63;;;28.00;;
8819;SDS011;4446;50.876;4.736;2023-02-23T05:32:10;69.68;;;30.05;;
8819;SDS011;4446;50.876;4.736;2023-02-23T05:34:37;63.80;;;28.48;;
8819;SDS011;4446;50.876;4.736;2023-02-23T05:37:04;67.68;;;28.63;;
8819;SDS011;4446;50.876;4.736;2023-02-23T05:39:31;62.53;;;28.38;;
8819;SDS011;4446;50.876;4.736;2023-02-23T05:41:58;55.95;;;26.25;;
8819;SDS011;4446;50.876;4.736;2023-02-23T05:44:27;63.05;;;27.08;;
8819;SDS011;4446;50.876;4.736;2023-02-23T05:46:54;63.90;;;26.90;;
8819;SDS011;4446;50.876;4.736;2023-02-23T05:49:21;64.63;;;27.65;;
8819;SDS011;4446;50.876;4.736;2023-02-23T05:51:48;63.88;;;27.35;;
8819;SDS011;4446;50.876;4.736;2023-02-23T05:54:15;68.82;;;29.45;;
8819;SDS011;4446;50.876;4.736;2023-02-23T05:56:42;65.40;;;27.80;;
8819;SDS011;4446;50.876;4.736;2023-02-23T05:59:09;64.50;;;28.27;;
8819;SDS011;4446;50.876;4.736;2023-02-23T06:01:38;68.85;;;29.38;;
8819;SDS011;4446;50.876;4.736;2023-02-23T06:04:05;63.00;;;28.45;;
8819;SDS011;4446;50.876;4.736;2023-02-23T06:06:32;63.15;;;27.77;;
8819;SDS011;4446;50.876;4.736;2023-02-23T06:09:00;67.10;;;29.27;;
8819;SDS011;4446;50.876;4.736;2023-02-23T06:11:27;74.50;;;30.80;;
8819;SDS011;4446;50.876;4.736;2023-02-23T06:13:56;73.32;;;29.42;;
8819;SDS011;4446;50.876;4.736;2023-02-23T06:16:23;64.55;;;29.08;;
8819;SDS011;4446;50.876;4.736;2023-02-23T06:18:51;70.97;;;29.77;;
8819;SDS011;4446;50.876;4.736;2023-02-23T06:21:18;64.38;;;27.20;;
8819;SDS011;4446;50.876;4.736;2023-02-23T06:23:45;69.53;;;29.50;;
8819;SDS011;4446;50.876;4.736;2023-02-23T06:26:12;69.40;;;29.70;;
8819;SDS011;4446;50.876;4.736;2023-02-23T06:28:39;81.80;;;32.67;;
8819;SDS011;4446;50.876;4.736;2023-02-23T06:31:06;76.20;;;30.90;;
8819;SDS011;4446;50.876;4.736;2023-02-23T06:33:33;82.03;;;32.55;;
8819;SDS011;4446;50.876;4.736;2023-02-23T06:36:01;89.93;;;33.47;;
8819;SDS011;4446;50.876;4.736;2023-02-23T06:38:28;95.60;;;35.13;;
8819;SDS011;4446;50.876;4.736;2023-02-23T06:40:55;83.82;;;34.35;;
8819;SDS011;4446;50.876;4.736;2023-02-23T06:43:22;85.53;;;33.25;;
8819;SDS011;4446;50.876;4.736;2023-02-23T06:45:49;84.05;;;32.78;;
8819;SDS011;4446;50.876;4.736;2023-02-23T06:48:16;78.35;;;32.00;;
8819;SDS011;4446;50.876;4.736;2023-02-23T06:50:43;78.38;;;30.83;;
8819;SDS011;4446;50.876;4.736;2023-02-23T06:53:11;78.15;;;31.35;;
8819;SDS011;4446;50.876;4.736;2023-02-23T06:55:38;91.00;;;34.28;;
8819;SDS011;4446;50.876;4.736;2023-02-23T06:58:05;91.75;;;34.95;;
8819;SDS011;4446;50.876;4.736;2023-02-23T07:00:32;81.60;;;30.92;;
8819;SDS011;4446;50.876;4.736;2023-02-23T07:02:59;88.38;;;33.30;;
8819;SDS011;4446;50.876;4.736;2023-02-23T07:05:26;87.18;;;33.10;;
8819;SDS011;4446;50.876;4.736;2023-02-23T07:07:53;94.45;;;35.63;;
8819;SDS011;4446;50.876;4.736;2023-02-23T07:10:21;78.82;;;31.38;;
8819;SDS011;4446;50.876;4.736;2023-02-23T07:12:48;85.80;;;33.72;;
8819;SDS011;4446;50.876;4.736;2023-02-23T07:15:15;82.25;;;32.20;;
8819;SDS011;4446;50.876;4.736;2023-02-23T07:17:44;77.80;;;33.15;;
8819;SDS011;4446;50.876;4.736;2023-02-23T07:20:13;92.60;;;34.90;;
8819;SDS011;4446;50.876;4.736;2023-02-23T07:22:40;86.03;;;33.53;;
8819;SDS011;4446;50.876;4.736;2023-02-23T07:25:07;82.35;;;33.30;;
8819;SDS011;4446;50.876;4.736;2023-02-23T07:27:35;93.05;;;35.45;;
8819;SDS011;4446;50.876;4.736;2023-02-23T07:30:03;84.22;;;35.15;;
8819;SDS011;4446;50.876;4.736;2023-02-23T07:32:31;104.35;;;37.25;;
8819;SDS011;4446;50.876;4.736;2023-02-23T07:34:57;87.15;;;33.15;;
8819;SDS011;4446;50.876;4.736;2023-02-23T07:37:24;86.40;;;33.15;;
8819;SDS011;4446;50.876;4.736;2023-02-23T07:39:51;77.95;;;31.80;;
8819;SDS011;4446;50.876;4.736;2023-02-23T07:42:19;98.07;;;35.47;;
8819;SDS011;4446;50.876;4.736;2023-02-23T07:44:47;94.38;;;37.08;;
8819;SDS011;4446;50.876;4.736;2023-02-23T07:47:14;103.57;;;37.53;;
8819;SDS011;4446;50.876;4.736;2023-02-23T07:49:41;91.20;;;37.45;;
8819;SDS011;4446;50.876;4.736;2023-02-23T07:52:08;99.18;;;37.55;;
8819;SDS011;4446;50.876;4.736;2023-02-23T07:54:35;91.65;;;36.97;;
8819;SDS011;4446;50.876;4.736;2023-02-23T07:57:02;94.78;;;38.30;;
8819;SDS011;4446;50.876;4.736;2023-02-23T07:59:29;94.03;;;37.45;;
8819;SDS011;4446;50.876;4.736;2023-02-23T08:01:57;104.97;;;39.55;;
8819;SDS011;4446;50.876;4.736;2023-02-23T08:04:25;94.82;;;38.10;;
8819;SDS011;4446;50.876;4.736;2023-02-23T08:06:52;106.63;;;41.63;;
8819;SDS011;4446;50.876;4.736;2023-02-23T08:09:19;107.97;;;42.00;;
8819;SDS011;4446;50.876;4.736;2023-02-23T08:11:46;109.38;;;42.03;;
8819;SDS011;4446;50.876;4.736;2023-02-23T08:14:12;109.55;;;41.83;;
8819;SDS011;4446;50.876;4.736;2023-02-23T08:16:40;101.97;;;39.83;;
8819;SDS011;4446;50.876;4.736;2023-02-23T08:19:08;104.18;;;40.28;;
8819;SDS011;4446;50.876;4.736;2023-02-23T08:21:35;112.25;;;41.70;;
8819;SDS011;4446;50.876;4.736;2023-02-23T08:24:02;114.20;;;42.50;;
8819;SDS011;4446;50.876;4.736;2023-02-23T08:26:29;116.32;;;43.58;;
8819;SDS011;4446;50.876;4.736;2023-02-23T08:28:56;112.30;;;43.45;;
8819;SDS011;4446;50.876;4.736;2023-02-23T08:31:23;102.72;;;41.28;;
8819;SDS011;4446;50.876;4.736;2023-02-23T08:33:51;108.07;;;42.40;;
8819;SDS011;4446;50.876;4.736;2023-02-23T08:36:20;114.03;;;43.53;;
8819;SDS011;4446;50.876;4.736;2023-02-23T08:38:47;109.40;;;42.95;;
8819;SDS011;4446;50.876;4.736;2023-02-23T08:41:14;109.32;;;42.03;;
8819;SDS011;4446;50.876;4.736;2023-02-23T08:43:42;115.80;;;43.10;;
8819;SDS011;4446;50.876;4.736;2023-02-23T08:46:09;115.50;;;43.88;;
8819;SDS011;4446;50.876;4.736;2023-02-23T08:48:36;110.25;;;42.50;;
8819;SDS011;4446;50.876;4.736;2023-02-23T08:51:04;115.70;;;41.50;;
8819;SDS011;4446;50.876;4.736;2023-02-23T08:53:33;126.97;;;45.13;;
8819;SDS011;4446;50.876;4.736;2023-02-23T08:56:02;117.35;;;43.17;;
8819;SDS011;4446;50.876;4.736;2023-02-23T08:58:31;108.07;;;42.85;;
8819;SDS011;4446;50.876;4.736;2023-02-23T09:00:59;119.10;;;43.20;;
8819;SDS011;4446;50.876;4.736;2023-02-23T09:03:26;109.60;;;41.78;;
8819;SDS011;4446;50.876;4.736;2023-02-23T09:05:54;112.22;;;42.60;;
8819;SDS011;4446;50.876;4.736;2023-02-23T09:08:22;95.88;;;38.25;;
8819;SDS011;4446;50.876;4.736;2023-02-23T09:10:51;110.10;;;42.80;;
8819;SDS011;4446;50.876;4.736;2023-02-23T09:13:18;114.07;;;42.22;;
8819;SDS011;4446;50.876;4.736;2023-02-23T09:15:44;107.30;;;42.53;;
8819;SDS011;4446;50.876;4.736;2023-02-23T09:18:12;101.28;;;42.03;;
8819;SDS011;4446;50.876;4.736;2023-02-23T09:20:40;90.60;;;37.88;;
8819;SDS011;4446;50.876;4.736;2023-02-23T09:23:07;94.03;;;38.30;;
8819;SDS011;4446;50.876;4.736;2023-02-23T09:25:38;95.32;;;38.85;;
8819;SDS011;4446;50.876;4.736;2023-02-23T09:28:09;95.05;;;38.90;;
8819;SDS011;4446;50.876;4.736;2023-02-23T09:30:37;83.88;;;36.72;;
8819;SDS011;4446;50.876;4.736;2023-02-23T09:33:06;98.43;;;38.53;;
8819;SDS011;4446;50.876;4.736;2023-02-23T09:35:33;91.68;;;38.72;;
8819;SDS011;4446;50.876;4.736;2023-02-23T09:38:01;91.63;;;38.10;;
8819;SDS011;4446;50.876;4.736;2023-02-23T09:40:33;84.68;;;38.85;;
8819;SDS011;4446;50.876;4.736;2023-02-23T09:43:11;93.55;;;39.15;;
8819;SDS011;4446;50.876;4.736;2023-02-23T09:45:42;86.90;;;37.65;;
8819;SDS011;4446;50.876;4.736;2023-02-23T09:48:14;83.97;;;36.70;;
8819;SDS011;4446;50.876;4.736;2023-02-23T09:50:44;81.57;;;36.38;;
8819;SDS011;4446;50.876;4.736;2023-02-23T09:53:18;81.45;;;37.40;;
8819;SDS011;4446;50.876;4.736;2023-02-23T09:55:53;85.32;;;38.53;;
8819;SDS011;4446;50.876;4.736;2023-02-23T09:58:24;77.00;;;37.50;;
8819;SDS011;4446;50.876;4.736;2023-02-23T10:01:01;76.47;;;34.72;;
8819;SDS011;4446;50.876;4.736;2023-02-23T10:04:00;77.53;;;34.20;;
8819;SDS011;4446;50.876;4.736;2023-02-23T10:06:32;76.35;;;34.42;;
8819;SDS011;4446;50.876;4.736;2023-02-23T10:09:02;78.95;;;36.47;;
8819;SDS011;4446;50.876;4.736;2023-02-23T10:11:39;74.47;;;35.03;;
8819;SDS011;4446;50.876;4.736;2023-02-23T10:14:24;72.20;;;35.20;;
8819;SDS011;4446;50.876;4.736;2023-02-23T10:17:09;72.22;;;33.17;;
8819;SDS011;4446;50.876;4.736;2023-02-23T10:19:43;65.72;;;32.45;;
8819;SDS011;4446;50.876;4.736;2023-02-23T10:22:16;73.47;;;33.95;;
8819;SDS011;4446;50.876;4.736;2023-02-23T10:24:46;65.00;;;32.30;;
8819;SDS011;4446;50.876;4.736;2023-02-23T10:27:20;62.72;;;30.67;;
8819;SDS011;4446;50.876;4.736;2023-02-23T10:29:50;61.10;;;31.00;;
8819;SDS011;4446;50.876;4.736;2023-02-23T10:32:20;57.85;;;29.25;;
8819;SDS011;4446;50.876;4.736;2023-02-23T10:34:52;56.15;;;28.80;;
8819;SDS011;4446;50.876;4.736;2023-02-23T10:37:21;53.17;;;27.88;;
8819;SDS011;4446;50.876;4.736;2023-02-23T10:39:49;52.78;;;27.33;;
8819;SDS011;4446;50.876;4.736;2023-02-23T10:42:19;53.83;;;28.02;;
8819;SDS011;4446;50.876;4.736;2023-02-23T10:44:56;47.40;;;25.83;;
8819;SDS011;4446;50.876;4.736;2023-02-23T10:47:25;53.70;;;27.58;;
8819;SDS011;4446;50.876;4.736;2023-02-23T10:49:56;47.72;;;25.17;;
8819;SDS011;4446;50.876;4.736;2023-02-23T10:52:26;46.78;;;25.60;;
8819;SDS011;4446;50.876;4.736;2023-02-23T10:54:57;48.10;;;24.88;;
8819;SDS011;4446;50.876;4.736;2023-02-23T10:57:25;48.03;;;25.83;;
8819;SDS011;4446;50.876;4.736;2023-02-23T11:00:04;45.33;;;25.02;;
8819;SDS011;4446;50.876;4.736;2023-02-23T11:02:51;44.45;;;23.83;;
8819;SDS011;4446;50.876;4.736;2023-02-23T11:05:36;43.42;;;23.75;;
8819;SDS011;4446;50.876;4.736;2023-02-23T11:08:17;39.00;;;21.65;;
8819;SDS011;4446;50.876;4.736;2023-02-23T11:10:56;38.83;;;22.35;;
8819;SDS011;4446;50.876;4.736;2023-02-23T11:13:35;34.13;;;20.88;;
8819;SDS011;4446;50.876;4.736;2023-02-23T11:16:06;34.85;;;20.65;;
8819;SDS011;4446;50.876;4.736;2023-02-23T11:18:35;36.50;;;21.02;;
8819;SDS011;4446;50.876;4.736;2023-02-23T11:21:07;37.15;;;21.85;;
8819;SDS011;4446;50.876;4.736;2023-02-23T11:23:36;37.63;;;21.92;;
8819;SDS011;4446;50.876;4.736;2023-02-23T11:26:05;32.15;;;19.73;;
8819;SDS011;4446;50.876;4.736;2023-02-23T11:28:50;30.88;;;18.88;;
8819;SDS011;4446;50.876;4.736;2023-02-23T11:31:21;30.25;;;18.25;;
8819;SDS011;4446;50.876;4.736;2023-02-23T11:33:54;33.90;;;19.30;;
8819;SDS011;4446;50.876;4.736;2023-02-23T11:36:25;28.60;;;18.15;;
8819;SDS011;4446;50.876;4.736;2023-02-23T11:39:06;26.65;;;17.17;;
8819;SDS011;4446;50.876;4.736;2023-02-23T11:41:43;28.63;;;16.80;;
8819;SDS011;4446;50.876;4.736;2023-02-23T11:44:17;27.20;;;17.58;;
8819;SDS011;4446;50.876;4.736;2023-02-23T11:46:47;29.33;;;16.88;;
8819;SDS011;4446;50.876;4.736;2023-02-23T11:49:17;28.55;;;17.08;;
8819;SDS011;4446;50.876;4.736;2023-02-23T11:51:47;30.15;;;18.00;;
8819;SDS011;4446;50.876;4.736;2023-02-23T11:54:19;26.50;;;16.42;;
8819;SDS011;4446;50.876;4.736;2023-02-23T11:56:50;30.48;;;17.73;;
8819;SDS011;4446;50.876;4.736;2023-02-23T11:59:20;28.00;;;16.63;;
8819;SDS011;4446;50.876;4.736;2023-02-23T12:01:55;27.95;;;17.52;;
8819;SDS011;4446;50.876;4.736;2023-02-23T12:04:30;26.25;;;17.00;;
8819;SDS011;4446;50.876;4.736;2023-02-23T12:09:52;29.73;;;18.80;;
8819;SDS011;4446;50.876;4.736;2023-02-23T12:12:23;29.80;;;18.73;;
8819;SDS011;4446;50.876;4.736;2023-02-23T12:14:54;30.42;;;18.30;;
8819;SDS011;4446;50.876;4.736;2023-02-23T12:17:27;34.92;;;19.90;;
8819;SDS011;4446;50.876;4.736;2023-02-23T12:19:58;32.38;;;19.65;;
8819;SDS011;4446;50.876;4.736;2023-02-23T12:22:31;33.72;;;20.65;;
8819;SDS011;4446;50.876;4.736;2023-02-23T12:25:01;37.97;;;22.40;;
8819;SDS011;4446;50.876;4.736;2023-02-23T12:27:30;34.53;;;21.58;;
8819;SDS011;4446;50.876;4.736;2023-02-23T12:30:08;39.13;;;23.33;;
8819;SDS011;4446;50.876;4.736;2023-02-23T12:32:44;35.30;;;22.55;;
8819;SDS011;4446;50.876;4.736;2023-02-23T12:35:16;38.22;;;23.48;;
8819;SDS011;4446;50.876;4.736;2023-02-23T12:37:48;39.67;;;23.48;;
8819;SDS011;4446;50.876;4.736;2023-02-23T12:40:21;37.42;;;23.80;;
8819;SDS011;4446;50.876;4.736;2023-02-23T12:42:55;32.75;;;22.05;;
8819;SDS011;4446;50.876;4.736;2023-02-23T12:45:27;34.67;;;22.00;;
8819;SDS011;4446;50.876;4.736;2023-02-23T12:48:07;37.78;;;23.55;;
8819;SDS011;4446;50.876;4.736;2023-02-23T12:50:41;40.30;;;25.15;;
8819;SDS011;4446;50.876;4.736;2023-02-23T12:53:16;43.90;;;25.77;;
8819;SDS011;4446;50.876;4.736;2023-02-23T12:55:54;42.30;;;25.90;;
8819;SDS011;4446;50.876;4.736;2023-02-23T12:58:33;44.08;;;27.25;;
8819;SDS011;4446;50.876;4.736;2023-02-23T13:01:07;43.75;;;26.15;;
8819;SDS011;4446;50.876;4.736;2023-02-23T13:03:42;47.03;;;27.23;;
8819;SDS011;4446;50.876;4.736;2023-02-23T13:06:19;44.53;;;27.58;;
8819;SDS011;4446;50.876;4.736;2023-02-23T13:09:00;50.80;;;28.08;;
8819;SDS011;4446;50.876;4.736;2023-02-23T13:11:41;45.35;;;27.55;;
8819;SDS011;4446;50.876;4.736;2023-02-23T13:14:17;47.47;;;28.42;;
8819;SDS011;4446;50.876;4.736;2023-02-23T13:16:52;49.50;;;28.35;;
8819;SDS011;4446;50.876;4.736;2023-02-23T13:19:25;41.90;;;27.13;;
8819;SDS011;4446;50.876;4.736;2023-02-23T13:22:00;43.72;;;26.95;;
8819;SDS011;4446;50.876;4.736;2023-02-23T13:24:39;45.28;;;28.15;;
8819;SDS011;4446;50.876;4.736;2023-02-23T13:27:12;43.90;;;27.02;;
8819;SDS011;4446;50.876;4.736;2023-02-23T13:29:43;45.05;;;28.02;;
8819;SDS011;4446;50.876;4.736;2023-02-23T13:32:15;45.90;;;27.23;;
8819;SDS011;4446;50.876;4.736;2023-02-23T13:34:48;39.63;;;26.55;;
8819;SDS011;4446;50.876;4.736;2023-02-23T13:37:18;41.95;;;26.85;;
8819;SDS011;4446;50.876;4.736;2023-02-23T13:39:55;43.92;;;26.85;;
8819;SDS011;4446;50.876;4.736;2023-02-23T13:42:39;41.50;;;26.25;;
8819;SDS011;4446;50.876;4.736;2023-02-23T13:45:16;40.88;;;25.92;;
8819;SDS011;4446;50.876;4.736;2023-02-23T13:48:05;40.35;;;26.35;;
8819;SDS011;4446;50.876;4.736;2023-02-23T13:50:46;37.63;;;23.83;;
8819;SDS011;4446;50.876;4.736;2023-02-23T13:53:35;36.90;;;23.90;;
8819;SDS011;4446;50.876;4.736;2023-02-23T13:56:05;38.88;;;24.98;;
8819;SDS011;4446;50.876;4.736;2023-02-23T13:58:34;42.78;;;26.02;;
8819;SDS011;4446;50.876;4.736;2023-02-23T14:01:03;38.33;;;24.98;;
8819;SDS011;4446;50.876;4.736;2023-02-23T14:03:38;40.10;;;25.85;;
8819;SDS011;4446;50.876;4.736;2023-02-23T14:06:13;43.35;;;27.98;;
8819;SDS011;4446;50.876;4.736;2023-02-23T14:08:43;44.38;;;27.67;;
8819;SDS011;4446;50.876;4.736;2023-02-23T14:14:13;47.90;;;28.20;;
8819;SDS011;4446;50.876;4.736;2023-02-23T14:17:08;47.78;;;28.23;;
8819;SDS011;4446;50.876;4.736;2023-02-23T14:19:36;48.38;;;29.88;;
8819;SDS011;4446;50.876;4.736;2023-02-23T14:22:09;43.60;;;27.70;;
8819;SDS011;4446;50.876;4.736;2023-02-23T14:24:41;51.55;;;29.00;;
8819;SDS011;4446;50.876;4.736;2023-02-23T14:32:37;51.33;;;29.60;;
8819;SDS011;4446;50.876;4.736;2023-02-23T14:35:07;48.72;;;29.13;;
8819;SDS011;4446;50.876;4.736;2023-02-23T14:38:10;48.15;;;29.40;;
8819;SDS011;4446;50.876;4.736;2023-02-23T14:40:44;53.50;;;29.73;;
8819;SDS011;4446;50.876;4.736;2023-02-23T14:43:32;48.17;;;28.40;;
8819;SDS011;4446;50.876;4.736;2023-02-23T14:46:07;47.83;;;29.27;;
8819;SDS011;4446;50.876;4.736;2023-02-23T14:48:43;50.38;;;29.67;;
8819;SDS011;4446;50.876;4.736;2023-02-23T14:51:22;51.35;;;29.75;;
8819;SDS011;4446;50.876;4.736;2023-02-23T14:54:00;51.47;;;30.45;;
8819;SDS011;4446;50.876;4.736;2023-02-23T14:56:35;45.97;;;28.90;;
8819;SDS011;4446;50.876;4.736;2023-02-23T14:59:13;47.88;;;28.52;;
8819;SDS011;4446;50.876;4.736;2023-02-23T15:01:46;49.63;;;29.30;;
8819;SDS011;4446;50.876;4.736;2023-02-23T15:04:15;47.45;;;28.85;;
8819;SDS011;4446;50.876;4.736;2023-02-23T15:06:44;49.45;;;28.75;;
8819;SDS011;4446;50.876;4.736;2023-02-23T15:09:15;53.15;;;30.48;;
8819;SDS011;4446;50.876;4.736;2023-02-23T15:11:46;51.28;;;29.48;;
8819;SDS011;4446;50.876;4.736;2023-02-23T15:14:18;51.35;;;29.67;;
8819;SDS011;4446;50.876;4.736;2023-02-23T15:16:46;49.60;;;29.55;;
8819;SDS011;4446;50.876;4.736;2023-02-23T15:19:15;50.58;;;29.35;;
8819;SDS011;4446;50.876;4.736;2023-02-23T15:21:48;47.25;;;28.35;;
8819;SDS011;4446;50.876;4.736;2023-02-23T15:24:20;44.95;;;27.83;;
8819;SDS011;4446;50.876;4.736;2023-02-23T15:26:51;46.83;;;28.67;;
8819;SDS011;4446;50.876;4.736;2023-02-23T15:29:19;46.22;;;27.65;;
8819;SDS011;4446;50.876;4.736;2023-02-23T15:31:49;44.53;;;28.20;;
8819;SDS011;4446;50.876;4.736;2023-02-23T15:34:17;45.17;;;28.63;;